Time;durP1;ratioP1;P1;durP2;ratioP2;P2;SDS_P1;SDS_P2;PMS_P1;PMS_P2;Temp;Humidity;BMP_temperature;BMP_pressure;BME280_temperature;BME280_humidity;BME280_pressure;Samples;Min_cycle;Max_cycle;Signal;HPM_P1;HPM_P2
2021/12/27 00:00:55;;;;;;;36.72;13.45;;;-4.70;78.90;;;;;;5011933;28;20041;-68
2021/12/27 00:03:21;;;;;;;41.50;14.27;;;-4.60;79.30;;;;;;5013141;28;21057;-68
2021/12/27 00:05:47;;;;;;;40.38;13.90;;;-4.60;78.60;;;;;;5011020;28;20094;-68
2021/12/27 00:08:12;;;;;;;36.25;14.48;;;-4.60;78.60;;;;;;5001976;28;20033;-68
2021/12/27 00:10:38;;;;;;;43.05;14.43;;;-4.70;78.50;;;;;;5004755;28;20026;-68
2021/12/27 00:13:05;;;;;;;41.55;13.48;;;-4.70;78.70;;;;;;5009287;28;20030;-68
2021/12/27 00:15:31;;;;;;;34.42;13.98;;;-4.70;78.40;;;;;;5013900;28;20061;-68
2021/12/27 00:17:57;;;;;;;33.55;13.30;;;-4.80;79.00;;;;;;5008100;28;20834;-69
2021/12/27 00:20:23;;;;;;;33.83;14.43;;;-4.90;79.10;;;;;;5012597;28;20029;-68
2021/12/27 00:22:50;;;;;;;41.92;13.52;;;-5.00;79.10;;;;;;5006706;28;20810;-68
2021/12/27 00:25:17;;;;;;;34.03;13.10;;;-5.10;79.60;;;;;;5006095;28;20060;-68
2021/12/27 00:27:43;;;;;;;40.97;14.98;;;-5.10;80.00;;;;;;5009279;28;20029;-68
2021/12/27 00:30:10;;;;;;;34.05;14.13;;;-5.10;80.30;;;;;;5008472;28;20097;-68
2021/12/27 00:32:37;;;;;;;46.80;15.07;;;-5.20;79.70;;;;;;5011659;28;20036;-68
2021/12/27 00:35:04;;;;;;;38.83;14.55;;;-5.40;80.30;;;;;;5002999;28;20030;-68
2021/12/27 00:37:30;;;;;;;40.03;14.00;;;-5.40;81.20;;;;;;5007986;28;20409;-68
2021/12/27 00:39:56;;;;;;;35.30;12.70;;;-5.50;81.10;;;;;;5008147;28;20036;-68
2021/12/27 00:42:21;;;;;;;37.33;13.55;;;-5.50;81.20;;;;;;5015524;28;20183;-68
2021/12/27 00:44:47;;;;;;;40.65;13.90;;;-5.60;81.50;;;;;;5012302;28;20037;-69
2021/12/27 00:47:13;;;;;;;33.88;13.07;;;-5.60;81.90;;;;;;5007791;28;20038;-68
2021/12/27 00:49:39;;;;;;;40.70;14.25;;;-5.60;81.60;;;;;;5018065;28;20065;-68
2021/12/27 00:52:05;;;;;;;35.70;13.65;;;-5.60;81.80;;;;;;5001787;28;20034;-68
2021/12/27 00:54:31;;;;;;;38.95;14.60;;;-5.60;81.90;;;;;;5016668;28;20029;-69
2021/12/27 00:56:56;;;;;;;40.08;12.85;;;-5.60;81.70;;;;;;5011519;28;20120;-68
2021/12/27 00:59:23;;;;;;;36.83;14.00;;;-5.40;82.20;;;;;;5011144;28;20445;-68
2021/12/27 01:01:49;;;;;;;38.60;14.00;;;-5.40;81.40;;;;;;5014421;28;20037;-69
2021/12/27 01:04:15;;;;;;;31.58;13.43;;;-5.40;80.70;;;;;;5004358;28;20030;-68
2021/12/27 01:06:40;;;;;;;45.72;14.98;;;-5.20;80.20;;;;;;5002035;28;20893;-68
2021/12/27 01:09:07;;;;;;;34.10;13.65;;;-5.00;80.00;;;;;;5010409;28;20050;-68
2021/12/27 01:11:42;;;;;;;44.13;14.85;;;-4.90;79.10;;;;;;5006082;28;20036;-68
2021/12/27 01:14:14;;;;;;;43.33;13.68;;;-4.80;77.80;;;;;;5003838;28;20030;-68
2021/12/27 01:16:42;;;;;;;35.13;13.02;;;-4.70;77.60;;;;;;5014515;28;20049;-68
2021/12/27 01:19:09;;;;;;;35.92;12.82;;;-4.70;77.40;;;;;;5012805;28;20038;-68
2021/12/27 01:21:35;;;;;;;37.08;13.50;;;-4.70;77.30;;;;;;5007635;28;20083;-69
2021/12/27 01:24:03;;;;;;;38.58;15.15;;;-4.80;77.40;;;;;;5017612;28;20033;-68
2021/12/27 01:26:30;;;;;;;36.20;13.60;;;-4.80;77.80;;;;;;5016999;28;20032;-68
2021/12/27 01:28:58;;;;;;;39.28;14.63;;;-4.90;77.50;;;;;;5007957;28;20037;-68
2021/12/27 01:31:24;;;;;;;45.58;14.95;;;-4.90;77.90;;;;;;5005273;28;20038;-68
2021/12/27 01:33:50;;;;;;;38.92;15.13;;;-4.90;78.30;;;;;;5004459;28;20029;-68
2021/12/27 01:36:17;;;;;;;36.63;12.70;;;-4.90;78.30;;;;;;5008888;28;20052;-69
2021/12/27 01:38:44;;;;;;;37.63;14.52;;;-4.80;78.00;;;;;;5017425;28;20040;-68
2021/12/27 01:41:13;;;;;;;43.40;15.13;;;-4.70;77.20;;;;;;5016539;28;20037;-68
2021/12/27 01:43:40;;;;;;;41.88;15.18;;;-4.50;76.80;;;;;;5017005;28;20049;-68
2021/12/27 01:46:16;;;;;;;41.85;13.68;;;-4.50;76.10;;;;;;5011359;28;20146;-68
2021/12/27 01:48:45;;;;;;;46.70;15.18;;;-4.40;75.70;;;;;;5008283;28;20636;-68
2021/12/27 01:51:14;;;;;;;39.90;14.48;;;-4.40;75.90;;;;;;5012494;28;20040;-68
2021/12/27 01:53:42;;;;;;;41.97;15.07;;;-4.50;75.70;;;;;;5013874;28;20130;-68
2021/12/27 01:56:09;;;;;;;35.33;15.00;;;-4.50;76.20;;;;;;5010339;28;20065;-68
2021/12/27 01:58:35;;;;;;;43.83;16.05;;;-4.50;76.10;;;;;;5009135;28;20037;-68
2021/12/27 02:01:03;;;;;;;35.88;12.68;;;-4.40;75.90;;;;;;5011261;28;20048;-68
2021/12/27 02:03:30;;;;;;;36.45;14.10;;;-4.50;75.70;;;;;;5011595;28;20068;-68
2021/12/27 02:05:57;;;;;;;44.88;14.98;;;-4.50;76.50;;;;;;5014583;28;20104;-68
2021/12/27 02:08:23;;;;;;;42.17;14.00;;;-4.50;76.80;;;;;;5014068;28;20498;-68
2021/12/27 02:10:49;;;;;;;43.17;13.98;;;-4.60;76.40;;;;;;5007113;28;20041;-68
2021/12/27 02:13:16;;;;;;;42.08;15.63;;;-4.60;76.40;;;;;;5004713;28;20080;-68
2021/12/27 02:15:42;;;;;;;42.22;13.50;;;-4.60;76.40;;;;;;5011296;28;20055;-68
2021/12/27 02:18:11;;;;;;;47.55;15.50;;;-4.50;76.20;;;;;;5010409;28;20049;-68
2021/12/27 02:20:39;;;;;;;36.67;14.85;;;-4.50;76.20;;;;;;5018358;28;20069;-68
2021/12/27 02:23:14;;;;;;;49.25;14.80;;;-4.50;76.70;;;;;;5015369;28;20036;-68
2021/12/27 02:25:40;;;;;;;49.97;15.43;;;-4.50;76.30;;;;;;5018465;28;20084;-68
2021/12/27 02:28:08;;;;;;;43.45;15.40;;;-4.30;76.50;;;;;;5005295;28;20439;-68
2021/12/27 02:30:34;;;;;;;40.78;15.27;;;-4.10;75.80;;;;;;5018208;28;20030;-68
2021/12/27 02:33:05;;;;;;;41.30;13.82;;;-4.00;74.40;;;;;;5010336;28;20030;-68
2021/12/27 02:35:38;;;;;;;43.38;14.90;;;-4.00;73.90;;;;;;5013543;28;20032;-68
2021/12/27 02:38:05;;;;;;;52.70;15.75;;;-4.10;74.70;;;;;;5016817;28;20120;-68
2021/12/27 02:40:32;;;;;;;44.55;14.93;;;-4.10;74.60;;;;;;5029313;28;20033;-69
2021/12/27 02:43:09;;;;;;;41.80;16.33;;;-4.30;75.20;;;;;;5002968;28;20060;-68
2021/12/27 02:45:39;;;;;;;43.80;15.68;;;-4.20;75.20;;;;;;5010486;28;20583;-68
2021/12/27 02:48:06;;;;;;;45.97;14.93;;;-4.20;75.40;;;;;;5018275;28;20063;-68
2021/12/27 02:50:33;;;;;;;43.42;15.18;;;-4.20;74.60;;;;;;5016108;28;20025;-68
2021/12/27 02:53:00;;;;;;;44.92;15.10;;;-4.10;74.80;;;;;;5007815;28;20069;-68
2021/12/27 02:55:26;;;;;;;42.17;13.80;;;-4.00;74.40;;;;;;5012355;28;20698;-68
2021/12/27 02:57:52;;;;;;;41.30;15.25;;;-3.90;74.40;;;;;;5011489;28;20041;-68
2021/12/27 03:00:22;;;;;;;46.75;15.07;;;-3.90;74.20;;;;;;5008616;28;20040;-68
2021/12/27 03:02:49;;;;;;;40.78;15.85;;;-3.70;73.80;;;;;;5013610;28;20068;-68
2021/12/27 03:05:17;;;;;;;44.78;15.20;;;-3.60;73.30;;;;;;5011390;28;20192;-68
2021/12/27 03:07:45;;;;;;;53.20;16.70;;;-3.70;73.20;;;;;;5005345;28;20081;-68
2021/12/27 03:10:12;;;;;;;42.35;16.42;;;-3.80;73.50;;;;;;5011790;28;20097;-68
2021/12/27 03:12:38;;;;;;;41.28;15.65;;;-3.80;74.30;;;;;;5002395;28;20367;-68
2021/12/27 03:15:09;;;;;;;46.50;15.55;;;-3.90;74.00;;;;;;5009308;28;20647;-68
2021/12/27 03:17:36;;;;;;;40.90;15.05;;;-4.00;74.80;;;;;;5017187;28;20033;-69
2021/12/27 03:20:07;;;;;;;52.15;16.15;;;-4.20;75.50;;;;;;5014909;28;20037;-68
2021/12/27 03:22:33;;;;;;;44.53;15.70;;;-4.20;75.90;;;;;;5008145;28;20036;-69
2021/12/27 03:25:00;;;;;;;38.67;14.95;;;-4.10;75.90;;;;;;5003120;28;20030;-68
2021/12/27 03:27:26;;;;;;;40.13;15.55;;;-4.00;75.30;;;;;;5003211;28;20029;-68
2021/12/27 03:29:52;;;;;;;45.40;16.60;;;-4.20;75.40;;;;;;5012429;28;21025;-68
2021/12/27 03:32:20;;;;;;;49.22;17.52;;;-4.00;75.90;;;;;;5013116;28;20064;-68
2021/12/27 03:34:54;;;;;;;50.30;16.75;;;-4.00;75.30;;;;;;5002373;28;20055;-68
2021/12/27 03:37:21;;;;;;;42.95;15.18;;;-4.00;75.80;;;;;;5012857;28;20042;-68
2021/12/27 03:39:47;;;;;;;51.83;16.15;;;-4.10;75.70;;;;;;5009310;28;20034;-68
2021/12/27 03:42:15;;;;;;;42.75;15.95;;;-4.00;76.00;;;;;;5008316;28;20038;-68
2021/12/27 03:44:42;;;;;;;46.25;16.02;;;-4.10;75.70;;;;;;5011464;28;20069;-68
2021/12/27 03:47:07;;;;;;;43.08;16.98;;;-4.10;76.60;;;;;;5008230;28;20599;-68
2021/12/27 03:49:33;;;;;;;46.85;16.35;;;-4.20;77.00;;;;;;5006306;28;20037;-68
2021/12/27 03:51:59;;;;;;;49.30;17.75;;;-4.20;77.50;;;;;;5012904;28;20030;-68
2021/12/27 03:54:24;;;;;;;40.38;16.25;;;-4.20;77.00;;;;;;5011996;28;20025;-68
2021/12/27 03:56:51;;;;;;;38.65;14.88;;;-4.00;76.40;;;;;;5011879;28;20049;-68
2021/12/27 03:59:22;;;;;;;52.03;15.88;;;-3.90;76.00;;;;;;5015158;28;20048;-68
2021/12/27 04:01:49;;;;;;;42.10;16.08;;;-3.80;76.00;;;;;;5012298;28;20604;-68
2021/12/27 04:04:15;;;;;;;47.40;16.50;;;-3.80;75.50;;;;;;5008762;28;20025;-68
2021/12/27 04:06:40;;;;;;;52.95;17.17;;;-3.70;75.20;;;;;;5005809;28;20453;-68
2021/12/27 04:09:07;;;;;;;49.42;16.98;;;-3.80;75.60;;;;;;5002405;28;20769;-68
2021/12/27 04:11:32;;;;;;;46.78;16.95;;;-3.70;75.90;;;;;;5014835;28;20796;-68
2021/12/27 04:14:04;;;;;;;45.40;17.35;;;-3.60;75.30;;;;;;5014469;28;20022;-68
2021/12/27 04:16:29;;;;;;;49.78;16.73;;;-3.50;75.00;;;;;;5011544;28;20087;-68
2021/12/27 04:18:55;;;;;;;46.55;16.73;;;-3.30;74.70;;;;;;5007342;28;20037;-68
2021/12/27 04:21:21;;;;;;;53.53;17.23;;;-3.30;74.10;;;;;;5007069;28;20134;-68
2021/12/27 04:23:47;;;;;;;54.03;17.98;;;-3.40;74.70;;;;;;5006673;28;20132;-68
2021/12/27 04:26:12;;;;;;;44.85;16.67;;;-3.30;75.00;;;;;;5014241;28;20045;-68
2021/12/27 04:28:38;;;;;;;43.78;17.85;;;-3.20;74.00;;;;;;5007148;28;20083;-68
2021/12/27 04:31:04;;;;;;;50.05;18.42;;;-3.20;74.60;;;;;;5004730;28;20041;-68
2021/12/27 04:33:30;;;;;;;52.75;15.73;;;-3.10;74.10;;;;;;5011507;28;20025;-68
2021/12/27 04:35:55;;;;;;;42.50;17.27;;;-3.20;74.20;;;;;;5002802;28;20119;-68
2021/12/27 04:38:21;;;;;;;53.03;18.02;;;-3.10;74.20;;;;;;5010005;28;20406;-68
2021/12/27 04:40:51;;;;;;;49.28;17.95;;;-3.00;74.50;;;;;;5015376;28;20040;-68
2021/12/27 04:43:20;;;;;;;54.60;17.95;;;-3.10;73.70;;;;;;5010482;28;20173;-68
2021/12/27 04:45:48;;;;;;;49.40;17.27;;;-3.30;74.30;;;;;;5007651;28;20034;-68
2021/12/27 04:48:15;;;;;;;51.83;17.40;;;-3.40;75.30;;;;;;4995949;28;20164;-68
2021/12/27 04:50:41;;;;;;;45.85;16.25;;;-3.20;75.60;;;;;;4999872;28;20064;-68
2021/12/27 04:53:07;;;;;;;53.78;18.15;;;-3.20;75.00;;;;;;5016334;28;20481;-68
2021/12/27 04:55:37;;;;;;;51.95;18.33;;;-3.20;74.80;;;;;;5022496;28;20030;-68
2021/12/27 04:58:05;;;;;;;53.95;17.90;;;-3.00;74.80;;;;;;5013978;28;20052;-68
2021/12/27 05:00:31;;;;;;;45.85;17.67;;;-2.80;74.20;;;;;;5020219;28;20767;-68
2021/12/27 05:02:58;;;;;;;49.67;18.08;;;-2.80;73.80;;;;;;5011046;28;20719;-68
2021/12/27 05:05:25;;;;;;;47.17;16.58;;;-3.00;73.60;;;;;;5012101;28;20029;-68
2021/12/27 05:07:52;;;;;;;57.90;18.67;;;-3.00;74.10;;;;;;5012406;28;20104;-68
2021/12/27 05:10:18;;;;;;;53.88;19.10;;;-3.00;74.70;;;;;;5012130;28;20029;-68
2021/12/27 05:12:44;;;;;;;53.25;19.02;;;-2.90;74.30;;;;;;5014543;28;20021;-68
2021/12/27 05:15:10;;;;;;;53.35;18.45;;;-2.80;74.00;;;;;;5014902;28;20119;-68
2021/12/27 05:17:35;;;;;;;57.45;19.45;;;-2.90;73.60;;;;;;5006312;28;20034;-68
2021/12/27 05:20:05;;;;;;;51.75;17.15;;;-2.80;73.90;;;;;;5014234;28;20034;-68
2021/12/27 05:22:34;;;;;;;62.40;18.30;;;-2.70;74.00;;;;;;5015872;28;20482;-68
2021/12/27 05:25:00;;;;;;;49.08;17.38;;;-2.70;74.30;;;;;;5014514;28;20120;-69
2021/12/27 05:27:26;;;;;;;42.40;17.58;;;-2.80;74.60;;;;;;5010279;28;20025;-68
2021/12/27 05:29:52;;;;;;;52.58;18.05;;;-2.90;74.60;;;;;;5005894;28;20025;-68
2021/12/27 05:32:18;;;;;;;51.50;17.80;;;-3.10;75.40;;;;;;5009372;28;20080;-68
2021/12/27 05:34:43;;;;;;;50.47;17.52;;;-3.20;75.90;;;;;;5019173;28;20057;-68
2021/12/27 05:37:10;;;;;;;54.95;18.45;;;-3.20;76.40;;;;;;5016856;28;20033;-68
2021/12/27 05:39:36;;;;;;;46.35;17.77;;;-3.20;76.30;;;;;;5014341;28;20029;-68
2021/12/27 05:42:03;;;;;;;50.90;17.55;;;-3.10;76.40;;;;;;5012029;28;20525;-68
2021/12/27 05:44:28;;;;;;;49.45;18.58;;;-3.00;76.10;;;;;;5007238;28;20091;-68
2021/12/27 05:46:55;;;;;;;55.55;20.10;;;-3.00;75.70;;;;;;5006117;28;20041;-68
2021/12/27 05:49:22;;;;;;;46.97;17.73;;;-2.90;76.00;;;;;;5013186;28;20401;-68
2021/12/27 05:51:47;;;;;;;45.50;17.00;;;-2.80;75.80;;;;;;5017923;28;20021;-68
2021/12/27 05:54:14;;;;;;;40.17;17.00;;;-2.60;75.40;;;;;;5017681;28;20722;-68
2021/12/27 05:56:41;;;;;;;53.58;18.40;;;-2.70;75.00;;;;;;5011071;28;20516;-69
2021/12/27 05:59:07;;;;;;;43.67;17.80;;;-2.60;75.80;;;;;;5007503;28;20037;-68
2021/12/27 06:01:32;;;;;;;44.83;16.60;;;-2.60;75.60;;;;;;5011308;28;20036;-68
2021/12/27 06:03:59;;;;;;;48.88;18.05;;;-2.60;75.60;;;;;;5014803;28;20113;-68
2021/12/27 06:06:26;;;;;;;49.20;17.88;;;-2.60;75.70;;;;;;5014808;28;20047;-68
2021/12/27 06:08:52;;;;;;;50.20;18.25;;;-2.80;76.20;;;;;;5007418;28;20847;-68
2021/12/27 06:11:18;;;;;;;50.85;17.80;;;-2.80;76.60;;;;;;5013352;28;20037;-68
2021/12/27 06:13:43;;;;;;;58.60;18.63;;;-2.80;76.80;;;;;;5015513;28;20018;-68
2021/12/27 06:16:10;;;;;;;53.25;17.60;;;-2.70;76.70;;;;;;5011967;28;20116;-68
2021/12/27 06:18:36;;;;;;;53.08;18.45;;;-2.60;77.00;;;;;;5015831;28;20088;-68
2021/12/27 06:21:04;;;;;;;55.17;18.45;;;-2.70;76.70;;;;;;5009436;28;20056;-68
2021/12/27 06:23:30;;;;;;;51.28;18.45;;;-2.70;76.80;;;;;;5005665;28;20375;-68
2021/12/27 06:25:56;;;;;;;48.53;19.20;;;-2.60;76.90;;;;;;5009956;28;20037;-68
2021/12/27 06:28:22;;;;;;;40.97;19.10;;;-2.50;77.10;;;;;;5008685;28;20042;-68
2021/12/27 06:30:48;;;;;;;51.60;17.25;;;-2.30;76.70;;;;;;5013834;28;20056;-69
2021/12/27 06:33:14;;;;;;;51.50;19.02;;;-2.20;76.10;;;;;;5015578;28;20107;-68
2021/12/27 06:35:40;;;;;;;51.17;18.48;;;-2.00;75.60;;;;;;5012394;28;20022;-68
2021/12/27 06:38:06;;;;;;;47.08;19.33;;;-1.90;75.10;;;;;;5012227;28;20026;-68
2021/12/27 06:40:31;;;;;;;52.47;18.73;;;-2.10;75.40;;;;;;5008645;28;20673;-68
2021/12/27 06:42:58;;;;;;;54.78;20.40;;;-2.20;75.60;;;;;;5010483;28;20026;-68
2021/12/27 06:45:24;;;;;;;51.72;18.95;;;-2.20;75.90;;;;;;5011036;28;20915;-68
2021/12/27 06:47:49;;;;;;;53.00;18.35;;;-2.20;76.50;;;;;;5009194;28;20623;-68
2021/12/27 06:50:16;;;;;;;53.25;19.65;;;-2.30;77.60;;;;;;5010207;28;20041;-68
2021/12/27 06:52:43;;;;;;;49.67;18.83;;;-2.30;78.80;;;;;;5013522;28;20033;-69
2021/12/27 06:55:10;;;;;;;47.72;18.83;;;-2.20;79.80;;;;;;5009128;28;20029;-68
2021/12/27 06:57:36;;;;;;;56.83;20.83;;;-2.10;79.90;;;;;;5014647;28;20624;-68
2021/12/27 07:00:06;;;;;;;48.30;18.35;;;-1.90;79.90;;;;;;5009030;28;20042;-68
2021/12/27 07:02:32;;;;;;;44.80;18.13;;;-1.90;79.90;;;;;;5008335;28;20135;-68
2021/12/27 07:04:58;;;;;;;47.20;18.52;;;-1.90;79.60;;;;;;5013443;28;20136;-68
2021/12/27 07:07:24;;;;;;;48.10;18.90;;;-2.10;81.00;;;;;;5011194;28;20120;-68
2021/12/27 07:09:50;;;;;;;50.25;18.77;;;-2.30;81.10;;;;;;5002413;28;20029;-68
2021/12/27 07:12:16;;;;;;;53.42;19.23;;;-2.20;81.60;;;;;;5014574;28;20073;-68
2021/12/27 07:14:42;;;;;;;55.72;19.33;;;-2.20;81.90;;;;;;5015447;28;20495;-68
2021/12/27 07:17:08;;;;;;;53.15;19.52;;;-2.30;81.70;;;;;;5011405;28;20120;-68
2021/12/27 07:19:34;;;;;;;50.20;18.50;;;-2.30;82.30;;;;;;5005439;28;20038;-68
2021/12/27 07:22:00;;;;;;;53.08;19.92;;;-2.30;82.20;;;;;;5006535;28;20486;-69
2021/12/27 07:24:26;;;;;;;50.33;18.75;;;-2.20;82.00;;;;;;4994182;28;20123;-68
2021/12/27 07:26:52;;;;;;;53.35;20.33;;;-2.20;81.70;;;;;;5009610;28;20026;-69
2021/12/27 07:29:19;;;;;;;51.80;19.23;;;-2.30;81.90;;;;;;5012065;28;20120;-68
2021/12/27 07:31:45;;;;;;;55.25;19.85;;;-2.20;82.00;;;;;;5008015;28;20405;-68
2021/12/27 07:34:12;;;;;;;49.75;18.70;;;-2.10;82.40;;;;;;5014209;28;20032;-68
2021/12/27 07:36:38;;;;;;;54.63;19.02;;;-2.20;82.00;;;;;;5012314;28;20037;-68
2021/12/27 07:39:05;;;;;;;52.67;18.75;;;-2.30;83.60;;;;;;5009023;28;20034;-68
2021/12/27 07:41:31;;;;;;;54.30;19.20;;;-2.20;83.40;;;;;;5009077;28;20873;-69
2021/12/27 07:43:56;;;;;;;52.53;21.08;;;-2.00;82.70;;;;;;5013358;28;20129;-69
2021/12/27 07:46:23;;;;;;;49.75;20.20;;;-2.00;82.30;;;;;;5007007;28;20489;-68
2021/12/27 07:48:49;;;;;;;56.25;19.88;;;-2.00;83.00;;;;;;5009867;28;20026;-69
2021/12/27 07:51:15;;;;;;;50.97;20.23;;;-1.90;82.50;;;;;;5010038;28;20100;-68
2021/12/27 07:53:41;;;;;;;42.85;18.85;;;-2.00;82.00;;;;;;5009722;28;20106;-68
2021/12/27 07:56:10;;;;;;;49.15;18.63;;;-2.00;82.40;;;;;;5010476;28;20413;-68
2021/12/27 07:58:36;;;;;;;58.47;18.83;;;-1.90;83.10;;;;;;5006464;28;20394;-68
2021/12/27 08:01:02;;;;;;;51.42;18.65;;;-1.80;82.30;;;;;;5004547;28;20045;-68
2021/12/27 08:03:28;;;;;;;59.22;19.00;;;-1.90;83.30;;;;;;5010528;28;20038;-68
2021/12/27 08:05:54;;;;;;;52.60;19.95;;;-2.00;83.00;;;;;;5005907;28;20045;-68
2021/12/27 08:08:20;;;;;;;57.50;19.25;;;-2.00;83.30;;;;;;5004710;28;20071;-68
2021/12/27 08:10:46;;;;;;;53.67;19.70;;;-2.00;83.90;;;;;;4994840;28;20033;-69
2021/12/27 08:13:12;;;;;;;56.70;18.73;;;-1.90;83.30;;;;;;5008857;28;20529;-68
2021/12/27 08:15:38;;;;;;;52.08;19.92;;;-1.80;83.70;;;;;;5006337;28;20052;-68
2021/12/27 08:18:05;;;;;;;48.58;18.40;;;-1.70;83.20;;;;;;5005438;28;20042;-68
2021/12/27 08:20:30;;;;;;;48.53;19.25;;;-1.70;82.50;;;;;;5007426;28;20028;-69
2021/12/27 08:22:56;;;;;;;54.72;19.30;;;-1.70;82.90;;;;;;5009975;28;20037;-68
2021/12/27 08:25:22;;;;;;;54.03;18.60;;;-1.70;82.80;;;;;;5009981;28;20042;-69
2021/12/27 08:27:48;;;;;;;52.83;18.52;;;-1.60;83.10;;;;;;5008809;28;20397;-68
2021/12/27 08:30:14;;;;;;;53.95;17.73;;;-1.70;83.60;;;;;;5007825;28;20064;-69
2021/12/27 08:32:42;;;;;;;48.80;19.73;;;-1.60;83.10;;;;;;5004788;28;20026;-68
2021/12/27 08:35:09;;;;;;;55.40;18.92;;;-1.60;83.10;;;;;;5005883;28;20030;-68
2021/12/27 08:37:36;;;;;;;54.95;19.60;;;-1.70;83.70;;;;;;5002658;28;20109;-69
2021/12/27 08:40:03;;;;;;;53.63;17.70;;;-1.60;83.40;;;;;;5004349;28;20029;-68
2021/12/27 08:42:29;;;;;;;48.88;18.92;;;-1.60;83.70;;;;;;5008066;28;20034;-69
2021/12/27 08:44:55;;;;;;;54.10;21.33;;;-1.50;83.60;;;;;;5003466;28;20044;-69
2021/12/27 08:47:21;;;;;;;47.85;19.17;;;-1.40;83.20;;;;;;5005684;28;20034;-68
2021/12/27 08:49:47;;;;;;;45.92;18.40;;;-1.30;82.90;;;;;;5003982;28;20022;-68
2021/12/27 08:52:13;;;;;;;48.25;19.35;;;-1.30;82.70;;;;;;5011613;28;20550;-68
2021/12/27 08:54:39;;;;;;;47.22;17.83;;;-1.40;83.20;;;;;;5005738;28;20076;-69
2021/12/27 08:57:09;;;;;;;53.97;19.52;;;-1.40;83.00;;;;;;5003852;28;20148;-68
2021/12/27 08:59:36;;;;;;;46.22;18.63;;;-1.30;82.90;;;;;;5008656;28;20034;-67
2021/12/27 09:02:02;;;;;;;50.17;18.88;;;-1.20;83.00;;;;;;5011854;28;20060;-68
2021/12/27 09:04:28;;;;;;;48.65;18.52;;;-1.10;82.30;;;;;;5004727;28;20110;-67
2021/12/27 09:06:54;;;;;;;53.08;19.40;;;-1.10;82.20;;;;;;4996963;28;20038;-70
2021/12/27 09:09:21;;;;;;;51.67;20.58;;;-1.10;81.80;;;;;;5007592;28;20490;-70
2021/12/27 09:11:47;;;;;;;45.63;19.60;;;-1.10;81.80;;;;;;5008109;28;20025;-68
2021/12/27 09:14:14;;;;;;;46.95;18.50;;;-1.20;82.30;;;;;;5005558;28;20482;-67
2021/12/27 09:16:40;;;;;;;54.63;20.50;;;-1.40;82.90;;;;;;5008365;28;20075;-68
2021/12/27 09:19:06;;;;;;;46.85;18.92;;;-1.30;83.10;;;;;;5014702;28;20850;-68
2021/12/27 09:21:32;;;;;;;51.08;20.45;;;-1.20;83.30;;;;;;5003795;28;20073;-69
2021/12/27 09:23:57;;;;;;;47.40;19.90;;;-1.10;83.70;;;;;;5006724;28;20021;-68
2021/12/27 09:26:23;;;;;;;57.40;19.27;;;-1.10;83.00;;;;;;5012325;28;20034;-68
2021/12/27 09:28:49;;;;;;;54.95;21.05;;;-1.00;82.70;;;;;;5011182;28;20056;-69
2021/12/27 09:31:14;;;;;;;53.97;20.05;;;-0.80;82.70;;;;;;5010391;28;20058;-69
2021/12/27 09:33:41;;;;;;;47.95;19.45;;;-0.70;81.50;;;;;;5005416;28;20029;-68
2021/12/27 09:36:06;;;;;;;54.55;19.15;;;-0.60;80.90;;;;;;5004434;28;20039;-70
2021/12/27 09:38:32;;;;;;;47.25;17.80;;;-0.70;81.50;;;;;;5011732;28;20496;-68
2021/12/27 09:40:58;;;;;;;53.05;20.48;;;-0.90;81.60;;;;;;5015243;28;20029;-68
2021/12/27 09:43:24;;;;;;;53.08;20.33;;;-0.90;82.50;;;;;;4998829;28;20308;-69
2021/12/27 09:45:50;;;;;;;46.88;19.48;;;-0.80;82.20;;;;;;5012558;28;20697;-69
2021/12/27 09:48:15;;;;;;;50.97;19.33;;;-0.80;82.40;;;;;;5013550;28;20042;-69
2021/12/27 09:50:48;;;;;;;53.05;19.10;;;-0.70;82.30;;;;;;5005971;28;20018;-69
2021/12/27 09:53:15;;;;;;;52.25;19.13;;;-0.60;81.60;;;;;;5008639;28;20055;-68
2021/12/27 09:55:40;;;;;;;59.05;21.17;;;-0.60;81.80;;;;;;5008386;28;20104;-69
2021/12/27 09:58:06;;;;;;;50.65;18.90;;;-0.50;81.40;;;;;;5006794;28;20153;-69
2021/12/27 10:00:34;;;;;;;55.00;20.83;;;-0.50;81.20;;;;;;5005781;28;20029;-69
2021/12/27 10:03:00;;;;;;;49.10;18.95;;;-0.50;80.40;;;;;;5003631;28;20029;-69
2021/12/27 10:05:29;;;;;;;54.88;20.60;;;-0.50;80.20;;;;;;5015690;28;20029;-69
2021/12/27 10:07:56;;;;;;;46.78;17.95;;;-0.40;80.30;;;;;;5012226;28;20371;-69
2021/12/27 10:10:22;;;;;;;56.17;20.33;;;-0.40;81.10;;;;;;5006192;28;20340;-70
2021/12/27 10:12:48;;;;;;;52.88;19.73;;;-0.20;80.70;;;;;;5004572;28;20034;-69
2021/12/27 10:15:18;;;;;;;54.83;19.63;;;-0.10;80.00;;;;;;5008377;28;20037;-70
2021/12/27 10:17:45;;;;;;;59.78;20.52;;;0.10;79.70;;;;;;5003886;28;20072;-69
2021/12/27 10:20:17;;;;;;;51.13;20.00;;;0.20;79.40;;;;;;5015142;28;20053;-69
2021/12/27 10:22:47;;;;;;;52.33;19.27;;;0.20;78.40;;;;;;5007236;28;20842;-69
2021/12/27 10:25:17;;;;;;;53.33;19.92;;;-0.10;78.60;;;;;;5016617;28;20472;-69
2021/12/27 10:27:44;;;;;;;53.25;18.77;;;-0.20;80.00;;;;;;5009652;28;20112;-69
2021/12/27 10:30:11;;;;;;;53.88;20.02;;;0.00;81.10;;;;;;5010342;28;20105;-69
2021/12/27 10:32:37;;;;;;;44.83;19.38;;;0.20;79.40;;;;;;5010510;28;20101;-69
2021/12/27 10:35:06;;;;;;;56.05;20.42;;;0.30;79.50;;;;;;5009806;28;20113;-69
2021/12/27 10:37:34;;;;;;;46.28;18.98;;;0.30;78.90;;;;;;4999493;28;20805;-69
2021/12/27 10:40:09;;;;;;;51.80;19.83;;;0.40;78.90;;;;;;5003743;28;20034;-70
2021/12/27 10:42:45;;;;;;;53.90;19.85;;;0.40;78.60;;;;;;5007431;28;20041;-69
2021/12/27 10:45:18;;;;;;;48.80;19.08;;;0.50;78.60;;;;;;5008607;28;20145;-70
2021/12/27 10:47:55;;;;;;;54.50;18.77;;;0.50;78.40;;;;;;5007388;28;20118;-69
2021/12/27 10:50:34;;;;;;;51.35;18.77;;;0.60;78.30;;;;;;5010580;28;20029;-69
2021/12/27 10:53:03;;;;;;;49.08;19.73;;;0.50;77.10;;;;;;5011541;28;20026;-69
2021/12/27 10:55:42;;;;;;;46.72;18.08;;;0.50;78.20;;;;;;5007494;28;20026;-69
2021/12/27 10:58:23;;;;;;;46.53;17.42;;;0.50;78.00;;;;;;5003539;28;20041;-69
2021/12/27 11:00:58;;;;;;;62.83;21.48;;;0.50;78.60;;;;;;5004332;28;20068;-70
2021/12/27 11:03:28;;;;;;;47.22;17.67;;;0.60;79.40;;;;;;5013188;28;20037;-69
2021/12/27 11:05:55;;;;;;;49.75;17.48;;;0.50;78.20;;;;;;5011642;28;20033;-69
2021/12/27 11:08:21;;;;;;;48.95;18.92;;;0.70;77.90;;;;;;5006046;28;20095;-69
2021/12/27 11:10:47;;;;;;;48.70;19.42;;;0.60;77.60;;;;;;5010205;28;20018;-69
2021/12/27 11:13:13;;;;;;;46.45;17.95;;;0.80;78.20;;;;;;5008120;28;20527;-69
2021/12/27 11:15:40;;;;;;;49.30;18.65;;;0.80;77.20;;;;;;5010967;28;20033;-70
2021/12/27 11:18:06;;;;;;;46.92;18.15;;;0.80;77.40;;;;;;5008286;28;20025;-68
2021/12/27 11:20:34;;;;;;;44.53;18.15;;;0.80;77.70;;;;;;5008303;28;20440;-69
2021/12/27 11:23:02;;;;;;;52.85;20.13;;;0.90;77.00;;;;;;5010777;28;20044;-70
2021/12/27 11:25:37;;;;;;;50.38;18.35;;;0.80;77.40;;;;;;5006691;28;20081;-70
2021/12/27 11:28:23;;;;;;;43.28;19.05;;;0.80;77.90;;;;;;5011959;28;20493;-68
2021/12/27 11:30:49;;;;;;;45.83;18.45;;;0.80;78.10;;;;;;5010717;28;20576;-69
2021/12/27 11:33:16;;;;;;;51.20;19.08;;;0.90;78.00;;;;;;5010840;28;20140;-69
2021/12/27 11:35:51;;;;;;;49.70;20.13;;;0.80;77.60;;;;;;5007222;28;20099;-69
2021/12/27 11:38:35;;;;;;;47.53;17.73;;;0.90;78.00;;;;;;5008918;28;20072;-69
2021/12/27 11:41:37;;;;;;;57.05;20.77;;;0.90;78.10;;;;;;5012086;28;20029;-69
2021/12/27 11:44:07;;;;;;;49.00;19.33;;;0.80;78.60;;;;;;5004105;28;20450;-69
2021/12/27 11:46:48;;;;;;;49.05;17.55;;;0.90;78.90;;;;;;5011034;28;20045;-70
2021/12/27 11:49:33;;;;;;;48.53;19.55;;;0.90;78.40;;;;;;5012092;28;20060;-70
2021/12/27 11:52:25;;;;;;;44.17;18.73;;;0.90;78.80;;;;;;5011713;28;20034;-68
2021/12/27 11:54:58;;;;;;;53.78;18.85;;;1.10;78.40;;;;;;5013680;28;20092;-66
2021/12/27 11:57:42;;;;;;;47.65;19.10;;;1.10;77.80;;;;;;5010174;28;20046;-69
2021/12/27 12:00:17;;;;;;;53.33;18.50;;;1.10;78.70;;;;;;5008880;28;20022;-69
2021/12/27 12:02:48;;;;;;;45.53;17.88;;;1.10;77.90;;;;;;5008115;28;20033;-68
2021/12/27 12:05:44;;;;;;;41.42;16.52;;;1.20;78.20;;;;;;5007461;28;20136;-68
2021/12/27 12:08:17;;;;;;;42.83;17.77;;;1.20;78.20;;;;;;5009418;28;20156;-69
2021/12/27 12:11:10;;;;;;;43.40;18.88;;;1.30;77.70;;;;;;5005293;28;20116;-68
2021/12/27 12:13:41;;;;;;;47.35;18.85;;;1.50;77.40;;;;;;5005099;28;20042;-69
2021/12/27 12:16:09;;;;;;;43.80;18.92;;;1.60;77.40;;;;;;5008054;28;20029;-67
2021/12/27 12:18:39;;;;;;;43.83;17.98;;;1.50;76.60;;;;;;5008833;28;20727;-68
2021/12/27 12:21:06;;;;;;;43.75;18.35;;;1.60;76.60;;;;;;5002944;28;20026;-68
2021/12/27 12:23:36;;;;;;;47.08;17.85;;;1.60;76.30;;;;;;5012827;28;20040;-68
2021/12/27 12:26:04;;;;;;;47.47;18.85;;;1.70;76.20;;;;;;5017738;28;20956;-67
2021/12/27 12:28:30;;;;;;;47.60;17.80;;;1.70;75.90;;;;;;5012444;28;20034;-68
2021/12/27 12:30:56;;;;;;;41.97;16.58;;;1.60;76.30;;;;;;5007986;28;20854;-68